Tiempo atmosférico en la estación meteorológica de Puerto El Pico, Ávila (1285 m.)



Fecha
DESCASC
Temp. máxima en grados centígrados (hora)
DESCASC
Temp. mínima en grados centígrados (hora)
DESCASC
Temp. media en grados centígrados
DESCASC
Racha de viento máxima en m/sg (hora)
DESCASC
Velocidad máxima media en intervalos de 10 minutos(hora)
DESCASC
Precipitaciones diarias en mm
DESCASC
Precipitaciones de 00:00 a 06:00 en mm
DESCASC
Precipitaciones de 06:00 a 12:00 en mm
DESCASC
Precipitaciones de 12:00 a 18:00 en mm
DESCASC
Precipitaciones de 18:00 a 24:00 en mm
DESCASC
16-01-2020 5.7 (19:30) 2.5 (23:20) 4.1 18.89 (22:30) 11.11 (22:20) 19.8 7.2 9.4 0 3.2
15-01-2020 5 (20:30) 1.7 (08:40) 3.4 13.06 (07:00) 5.83 (14:00) 15 4.2 8.4 0.2 2.2
14-01-2020 5.1 (16:20) -9.3 (07:50) -2.1 10.83 (12:40) 6.39 (13:50) 5.8 0 0 0 5.8
13-01-2020 6.7 (15:00) -8.6 (06:00) -1 9.17 (14:40) 5.28 (13:40) 0 0 0 0 0
12-01-2020 -- (--) -- (--) -- -- (--) -- (--) 0 0 0 0 0
11-01-2020 10.9 (16:00) -8.6 (-00:0) 1.1 4.72 (14:00) 2.5 (16:50) 0 0 0 0 0
10-01-2020 6.8 (16:10) -4 (-00:0) 1.4 10 (14:50) 7.5 (09:40) 0 0 0 0 0
09-01-2020 14.5 (16:40) -4.6 (-00:0) 5 9.17 (19:40) 3.89 (18:20) 0 0 0 0 0
08-01-2020 17.4 (15:10) -5.1 (-00:0) 6.1 5 (17:00) 3.06 (17:10) 0 0 0 0 0
07-01-2020 17.4 (16:00) -6.4 (-00:0) 5.5 4.17 (15:40) 2.22 (15:00) 0 0 0 0 0
06-01-2020 13.5 (14:00) -6.6 (-00:0) 3.5 5.56 (15:50) 3.06 (15:50) 0 0 0 0 0
05-01-2020 13.2 (15:20) -8.2 (-00:0) 2.5 5.28 (16:10) 3.61 (15:50) 0 0 0 0 0
04-01-2020 8 (16:10) -5.7 (-00:0) 1.2 4.72 (12:50) 3.33 (12:50) 0 0 0 0 0
03-01-2020 10.9 (14:10) -5.4 (-00:0) 2.7 8.89 (17:10) 5.28 (17:00) 0 0 0 0 0
02-01-2020 12.1 (14:30) -5.7 (-00:0) 3.2 8.33 (15:20) 4.17 (14:40) 0 0 0 0 0
01-01-2020 15.2 (15:50) -5.8 (-00:0) 4.7 6.39 (13:30) 4.17 (14:20) 0 0 0 0 0
31-12-2019 15.1 (15:30) -5.1 (-00:0) 5 6.67 (15:10) 3.89 (14:50) 0 0 0 0 0
30-12-2019 16.7 (14:10) -5.2 (-00:0) 5.8 -- (--) -- (--) 0 0 0 0 0
29-12-2019 18.9 (15:50) -4.2 (-00:0) 7.3 3.33 (15:20) 2.22 (14:50) 0 0 0 0 0
28-12-2019 17.9 (14:50) -5.3 (-00:0) 6.3 3.89 (15:20) 2.5 (17:10) 0 0 0 0 0
27-12-2019 15.2 (14:30) -6.9 (-00:0) 4.1 4.17 (14:30) 1.67 (14:20) 0 0 0 0 0
26-12-2019 14.5 (15:20) -4 (-00:0) 5.3 4.17 (14:50) 2.78 (14:40) 0 0 0 0 0
25-12-2019 14.9 (14:50) -2.2 (-00:0) 6.3 6.67 (15:00) 4.44 (15:00) 0 0 0 0 0
24-12-2019 -- (--) -- (--) -- -- (--) -- (--) 0 0 0 0 0
23-12-2019 -- (--) -- (--) -- -- (--) -- (--) 0 0 0 0 0
22-12-2019 -- (--) -- (--) -- -- (--) -- (--) 0.6 0.6 0 0 0
21-12-2019 -- (--) -- (--) -- 15 (19:50) 7.22 (13:40) 5.2 2.2 2.8 0.2 0
20-12-2019 10.5 (04:20) 6.2 (00:00) 8.3 22.5 (01:00) 9.72 (02:10) 54.2 28.8 0.2 9.6 15.6

Gráficas

Temp. máximas Temp. mínimas Temp. medias Precipitaciones Rachas de viento máximas Velocidades máximas media en intervalos de 10 minutos

Datos horarios

Fecha y hora oficial Temperatura (ºC) Velocidad del viento (km/h) Dirección del viento Racha (km/h) Dirección de racha Precipitación (mm) Presión (hPa) Tendencia (hPa) Humedad (%)
2020-01-18 23:00:00 2.4 21 Norte 37 Norte 0.6 -- -- 85
2020-01-18 22:00:00 2.9 6 Sur 16 Norte 1 -- -- 91
2020-01-18 21:00:00 4.8 8 Sudoeste 24 Noroeste 0 -- -- 84
2020-01-18 20:00:00 5.8 6 Nordeste 30 Sur 0 -- -- 77
2020-01-18 19:00:00 4.3 17 Sur 34 Sudoeste 0 -- -- 100
2020-01-18 18:00:00 4.5 15 Sudoeste 36 Sur 0 -- -- 98
2020-01-18 17:00:00 4.6 21 Sur 40 Sur 0 -- -- 100
2020-01-18 16:00:00 4.4 23 Sur 49 Sur 0 -- -- 100
2020-01-18 15:00:00 4.7 26 Sur 45 Sudoeste 0 -- -- 97
2020-01-18 14:00:00 4.5 22 Sur 41 Sur 0 -- -- 99
2020-01-18 13:00:00 4 22 Sur 47 Sur 0.2 -- -- 100
2020-01-18 12:00:00 3.7 21 Sur 41 Sur 0 -- -- 100
2020-01-18 11:00:00 3.7 19 Sur 42 Sudoeste 0 -- -- 98
2020-01-18 10:00:00 3.2 14 Sur 37 Sudoeste 0 -- -- 99
2020-01-18 09:00:00 2.7 21 Sur 40 Sudoeste 0 -- -- 99
2020-01-18 08:00:00 2.7 16 Sur 28 Sur 1.6 -- -- 97
2020-01-18 07:00:00 1.3 6 Sur 11 Sur 1.6 -- -- 99
2020-01-18 06:00:00 1.1 4 Nordeste 10 Noroeste 1 -- -- 94
2020-01-18 05:00:00 2.6 4 Norte 18 Sur 0 -- -- 93
2020-01-18 04:00:00 3.6 10 Sur 34 Sur 0 -- -- 94
2020-01-18 03:00:00 4 9 Sur 31 Sur 0 -- -- 91
2020-01-18 02:00:00 3.7 9 Sudoeste 25 Oeste 0 -- -- 96
2020-01-18 01:00:00 3.6 13 Sudoeste 31 Sudoeste 0 -- -- 98
2020-01-18 00:00:00 3.6 18 Sur 36 Sur 0 -- -- 93
2020-01-17 23:00:00 0.5 6 Norte 14 Norte 0 -- -- 97
2020-01-17 22:00:00 0.3 3 Sur 10 Sudeste 0 -- -- 99
2020-01-17 21:00:00 0.1 0 Calma 6 Sudoeste 0 -- -- 98
2020-01-17 20:00:00 0.7 4 Sur 8 Sur 0 -- -- 96
2020-01-17 19:00:00 2.8 6 Sur 14 Sudoeste 0 -- -- 97
2020-01-17 18:00:00 4.1 8 Sur 17 Sudoeste 0 -- -- 94
2020-01-17 17:00:00 7.5 8 Sur 22 Sur 0 -- -- 80
2020-01-17 16:00:00 7.8 11 Sur 24 Sur 0 -- -- 80
2020-01-17 15:00:00 6.9 15 Sur 24 Sur 0 -- -- 83
2020-01-17 14:00:00 8.2 10 Sudoeste 23 Norte 0 -- -- 75
2020-01-17 13:00:00 7.7 6 Norte 22 Norte 0 -- -- 68
2020-01-17 12:00:00 6.3 10 Norte 21 Norte 0 -- -- 75
2020-01-17 11:00:00 5 5 Sudeste 15 Sur 0 -- -- 92
2020-01-17 10:00:00 3.5 7 Sudoeste 17 Sur 0 -- -- 97
2020-01-17 09:00:00 2.8 9 Sur 14 Sur 0 -- -- 99
2020-01-17 08:00:00 2.2 7 Sur 16 Sudoeste 0 -- -- 99
2020-01-17 07:00:00 0.9 4 Sudeste 14 Sudoeste 0 -- -- 99
2020-01-17 06:00:00 2.6 6 Sur 20 Oeste 0 -- -- 100
2020-01-17 05:00:00 2.9 10 Sur 23 Sudoeste 0 -- -- 100
2020-01-17 04:00:00 3 9 Sudoeste 30 Sur 0 -- -- 100
2020-01-17 03:00:00 3.3 17 Sur 39 Sur 0 -- -- 100
2020-01-17 02:00:00 3.3 21 Sur 39 Sur 0 -- -- 99
2020-01-17 01:00:00 3.5 24 Sur 46 Sur 0.2 -- -- 98
2020-01-17 00:00:00 3 26 Sur 61 Sur 2.2 -- -- 96
2020-01-16 23:00:00 2.8 31 Sur 68 Sur 1 -- -- 93
2020-01-16 22:00:00 4.5 23 Sur 54 Sur 0 -- -- 80
2020-01-16 21:00:00 5.3 23 Sur 49 Sur 0 -- -- 78
2020-01-16 20:00:00 5.5 30 Sur 67 Sur 0 -- -- 77
2020-01-16 19:00:00 5.4 27 Sur 53 Sur 0 -- -- 77
2020-01-16 18:00:00 5.5 14 Sudoeste 38 Sudeste 0 -- -- 83
2020-01-16 17:00:00 5.5 12 Sudoeste 34 Sur 0 -- -- 88
2020-01-16 16:00:00 5.5 9 Sudoeste 35 Sur 0 -- -- 90
2020-01-16 15:00:00 5.2 17 Sur 48 Sur 0 -- -- 92
2020-01-16 14:00:00 5 12 Sudoeste 54 Sur 0 -- -- 93
2020-01-16 13:00:00 4.5 8 Sur 34 Sudoeste 0 -- -- 100
2020-01-16 12:00:00 4.3 10 Sudoeste 27 Sudoeste 0.2 -- -- 100
2020-01-16 11:00:00 4.5 8 Sudoeste 28 Sudoeste 0.6 -- -- 100
2020-01-16 10:00:00 4.4 10 Sudoeste 30 Sudoeste 1.8 -- -- 100
2020-01-16 09:00:00 4.5 9 Sudoeste 27 Sudoeste 2 -- -- 100
2020-01-16 08:00:00 4.6 8 Sudoeste 31 Sudoeste 2.2 -- -- 100
2020-01-16 07:00:00 4.7 12 Sudoeste 31 Sudoeste 2.6 -- -- 100
2020-01-16 06:00:00 4.7 13 Sudoeste 29 Sudoeste 1.8 -- -- 100
2020-01-16 05:00:00 4.7 13 Sudoeste 26 Sudoeste 1 -- -- 100
2020-01-16 04:00:00 4.8 5 Sudoeste 19 Sudoeste 0.8 -- -- 100
2020-01-16 03:00:00 4.7 9 Sudoeste 23 Sudoeste 1.2 -- -- 100
2020-01-16 02:00:00 4.6 9 Sudoeste 19 Sudoeste 1.4 -- -- 100
2020-01-16 01:00:00 4.6 5 Sudoeste 13 Sur 1 -- -- 100
2020-01-16 00:00:00 4.7 7 Sur 14 Sur 1 -- -- 100
2020-01-15 23:00:00 4.8 7 Sur 16 Sudoeste 0.8 -- -- 100
2020-01-15 22:00:00 4.6 9 Sur 18 Sur 0.2 -- -- 100
2020-01-15 21:00:00 4.8 11 Sur 19 Sur 0 -- -- 100
2020-01-15 20:00:00 4.9 9 Sur 21 Sur 0 -- -- 100
2020-01-15 19:00:00 3.9 11 Oeste 19 Sudoeste 0.2 -- -- 100
2020-01-15 18:00:00 3.6 12 Sur 23 Sur 0 -- -- 100
2020-01-15 17:00:00 3.6 13 Sur 29 Sur 0 -- -- 100
2020-01-15 16:00:00 4.8 14 Sur 30 Sudoeste 0 -- -- 99
2020-01-15 15:00:00 4.3 16 Sur 38 Sur 0 -- -- 97
2020-01-15 14:00:00 4.3 21 Sur 38 Sur 0 -- -- 98
2020-01-15 13:00:00 3.5 18 Sur 33 Sur 0.2 -- -- 98
2020-01-15 12:00:00 3.1 13 Sudoeste 36 Sudoeste 0.6 -- -- 97
2020-01-15 11:00:00 2.4 12 Sudoeste 30 Sur 0.8 -- -- 98
2020-01-15 10:00:00 2 9 Sudoeste 26 Sudoeste 1.8 -- -- 99
2020-01-15 09:00:00 1.8 17 Sur 29 Sudoeste 3 -- -- 99
2020-01-15 08:00:00 2.1 13 Sur 31 Sur 2 -- -- 98
2020-01-15 07:00:00 2.9 18 Sudoeste 47 Sudeste 0.2 -- -- 95
2020-01-15 06:00:00 2.8 8 Norte 30 Oeste 0 -- -- 99
2020-01-15 05:00:00 2.7 10 Oeste 27 Sudoeste 0 -- -- 100
2020-01-15 04:00:00 2.6 8 Sudoeste 31 Sur 0 -- -- 100
2020-01-15 03:00:00 2.5 16 Sudoeste 40 Sudoeste 0 -- -- 100
2020-01-15 02:00:00 2.4 13 Sudoeste 27 Sur 1.2 -- -- 100
2020-01-15 01:00:00 2.3 11 Sudoeste 25 Sudoeste 3 -- -- 99
2020-01-15 00:00:00 2.4 9 Sudoeste 26 Sudoeste 2.8 -- -- 98
2020-01-14 23:00:00 2.3 12 Sur 28 Sur 2.4 -- -- 98
2020-01-14 22:00:00 2.5 10 Sur 28 Sur 0.6 -- -- 98
2020-01-14 21:00:00 2.4 12 Sur 35 Sur 0 -- -- 99
2020-01-14 20:00:00 2.2 10 Sudoeste 24 Sur 0 -- -- 94
2020-01-14 19:00:00 1.2 4 Sur 20 Sur 0 -- -- 92
2020-01-14 18:00:00 1.8 15 Sur 27 Sudoeste 0 -- -- 91
2020-01-14 17:00:00 4.5 10 Sur 28 Sur 0 -- -- 77
2020-01-14 16:00:00 4.5 18 Sur 34 Sur 0 -- -- 76
2020-01-14 15:00:00 4.6 19 Sur 37 Sur 0 -- -- 75
2020-01-14 14:00:00 4.7 22 Sur 38 Sur 0 -- -- 71
2020-01-14 13:00:00 3.4 22 Sur 39 Sur 0 -- -- 76
2020-01-14 12:00:00 3.2 15 Sur 30 Sudeste 0 -- -- 78
2020-01-14 11:00:00 1.4 16 Sur 27 Sur 0 -- -- 78
2020-01-14 10:00:00 -6.7 0 Calma 6 Nordeste 0 -- -- 92
2020-01-14 09:00:00 -8.7 2 Nordeste 5 Norte 0 -- -- 97
2020-01-14 08:00:00 -9.1 2 Sudoeste 5 Nordeste 0 -- -- 96
2020-01-14 07:00:00 -8.7 3 Norte 4 Nordeste 0 -- -- 96
2020-01-14 06:00:00 -8.7 0 Calma 4 Sur 0 -- -- 96
2020-01-14 05:00:00 -8.4 0 Calma 4 Sudoeste 0 -- -- 94
2020-01-14 04:00:00 -7.9 2 Norte 9 Sudoeste 0 -- -- 96
2020-01-14 03:00:00 -7.4 0 Calma 6 Nordeste 0 -- -- 96
2020-01-14 02:00:00 -7 3 Sur 6 Sudoeste 0 -- -- 95
2020-01-14 01:00:00 -6 0 Calma 8 Norte 0 -- -- 95
2020-01-14 00:00:00 -5.2 2 Norte 10 Nordeste 0 -- -- 92
2020-01-13 23:00:00 -3.4 4 Norte 14 Norte 0 -- -- 87
2020-01-13 22:00:00 -0.3 7 Sudoeste 18 Sudoeste 0 -- -- 78
2020-01-13 21:00:00 -1.3 2 Noroeste 24 Sur 0 -- -- 81
2020-01-13 20:00:00 1.1 7 Sur 21 Sur 0 -- -- 82
2020-01-13 19:00:00 0.9 9 Sur 18 Sur 0 -- -- 86
2020-01-13 18:00:00 1.4 8 Sur 20 Sur 0 -- -- 82
2020-01-13 17:00:00 3.2 11 Sur 22 Sur 0 -- -- 74
2020-01-13 16:00:00 5.6 15 Sudoeste 31 Sudoeste 0 -- -- 64
2020-01-13 15:00:00 6.7 12 Sur 33 Sudoeste 0 -- -- 58
2020-01-13 14:00:00 5.5 17 Sur 32 Sudoeste 0 -- -- 59
2020-01-13 13:00:00 4.7 18 Sur 28 Sur 0 -- -- 59
2020-01-13 12:00:00 4.1 14 Sur 30 Sur 0 -- -- 60
2020-01-13 11:00:00 2.5 13 Sur 25 Sur 0 -- -- 63
2020-01-13 10:00:00 -5.2 0 Calma 7 Sudoeste 0 -- -- 73
2020-01-13 09:00:00 -8 2 Norte 7 Nordeste 0 -- -- 77
2020-01-13 08:00:00 -8.2 0 Calma 4 Sudoeste 0 -- -- 79
2020-01-13 07:00:00 -7.9 0 Calma 6 Sudoeste 0 -- -- 76
2020-01-13 06:00:00 -8.6 0 Calma 4 Sudoeste 0 -- -- 79
2020-01-13 05:00:00 -8 0 Calma 4 Sur 0 -- -- 76
2020-01-13 04:00:00 -7.5 0 Calma 8 Sudoeste 0 -- -- 75
2020-01-13 03:00:00 -6.6 0 Calma 5 Nordeste 0 -- -- 69
2020-01-13 02:00:00 -6.7 0 Calma 4 Sudoeste 0 -- -- 75
2020-01-13 01:00:00 -6.7 0 Calma 4 Sudoeste 0 -- -- 76
2020-01-13 00:00:00 -6 0 Calma 3 Norte 0 -- -- 73
2020-01-12 23:00:00 -5.5 0 Calma 3 Sudoeste 0 -- -- 71
2020-01-12 22:00:00 -5 0 Calma 3 Sur 0 -- -- 67
2020-01-12 21:00:00 -4.2 0 Calma 3 Sur 0 -- -- 66
2020-01-12 20:00:00 -3.1 0 Calma 5 Sur 0 -- -- 62
2020-01-12 19:00:00 -1 3 Sur 8 Sudoeste 0 -- -- 62
2020-01-12 18:00:00 2.3 3 Sur 13 Sudoeste 0 -- -- 58
2020-01-12 17:00:00 10.1 6 Sur 13 Sur 0 -- -- 46
2020-01-12 16:00:00 11.6 8 Sudoeste 19 Sur 0 -- -- 40
2020-01-12 15:00:00 10.3 10 Sudoeste 26 Sudoeste 0 -- -- 40
2020-01-12 14:00:00 10.8 12 Sur 17 Sur 0 -- -- 34
2020-01-12 13:00:00 11.2 4 Sudoeste 6 Sudoeste 0 -- -- 27
2020-01-12 12:00:00 6.1 0 Calma 4 Sudoeste 0 -- -- 33
2020-01-12 11:00:00 -0.1 0 Calma -- -- 0 -- -- 42
2020-01-12 10:00:00 -7.4 3 Sur -- -- 0 -- -- 77
2020-01-12 09:00:00 -- -- -- -- -- 0 -- -- --
2020-01-12 08:00:00 -10.1 0 Calma 3 Sur 0 -- -- 81
2020-01-12 07:00:00 -9.7 0 Calma 3 Sudoeste 0 -- -- 82
2020-01-12 06:00:00 -9.6 0 Calma 2 Sur 0 -- -- 83
2020-01-12 05:00:00 -9.4 0 Calma 3 Sudoeste 0 -- -- 83
2020-01-12 04:00:00 -9.3 0 Calma 2 Sur 0 -- -- 85
2020-01-12 03:00:00 -8.7 0 Calma 2 Sur 0 -- -- 83
2020-01-12 02:00:00 -8.1 0 Calma 2 Sudoeste 0 -- -- 84
2020-01-12 01:00:00 -7.6 0 Calma 2 Sur 0 -- -- 83
2020-01-12 00:00:00 -7 2 Sur 2 Sudoeste 0 -- -- 83
2020-01-11 23:00:00 -6.4 0 Calma 3 Sur 0 -- -- 77
2020-01-11 22:00:00 -6.6 0 Calma 2 Sudoeste 0 -- -- 80
2020-01-11 21:00:00 -5.6 0 Calma 4 Sudeste 0 -- -- 73
2020-01-11 20:00:00 -4.8 0 Calma 3 Sudeste 0 -- -- 70
2020-01-11 19:00:00 -3.2 2 Sur 10 Sudoeste 0 -- -- 71
2020-01-11 18:00:00 0.3 6 Sudoeste 12 Sur 0 -- -- 68
2020-01-11 17:00:00 6.9 8 Sudoeste 15 Sudoeste 0 -- -- 55
2020-01-11 16:00:00 10.9 2 Sudoeste 15 Sudoeste 0 -- -- 36
2020-01-11 15:00:00 9.4 5 Sudoeste 15 Este 0 -- -- 42
2020-01-11 14:00:00 8.4 6 Nordeste 17 Nordeste 0 -- -- 21
2020-01-11 13:00:00 7 2 Nordeste 4 Nordeste 0 -- -- 33
2020-01-11 12:00:00 3.4 0 Calma 3 Sudoeste 0 -- -- 61
2020-01-11 11:00:00 -0.7 0 Calma 2 Sur 0 -- -- 80
2020-01-11 10:00:00 -7 0 Calma -- -- 0 -- -- 99
2020-01-11 09:00:00 -8.1 0 Calma 2 Sur 0 -- -- 98
2020-01-11 08:00:00 -8 0 Calma 2 Sudoeste 0 -- -- 98
2020-01-11 07:00:00 -7.5 0 Calma 0 Calma 0 -- -- 99
2020-01-11 06:00:00 -6.6 0 Calma 2 Sur 0 -- -- 97
2020-01-11 05:00:00 -6.2 0 Calma 3 Sudeste 0 -- -- 94
2020-01-11 04:00:00 -5.3 0 Calma 4 Sudeste 0 -- -- 96
2020-01-11 03:00:00 -5.5 0 Calma 3 Sur 0 -- -- 96
2020-01-11 02:00:00 -4.9 0 Calma 2 Sur 0 -- -- 96
2020-01-11 01:00:00 -5 0 Calma 3 Sur 0 -- -- 99
2020-01-11 00:00:00 -4 0 Calma 6 Sudeste 0 -- -- 92
2020-01-10 23:00:00 -3.5 2 Sudeste 7 Norte 0 -- -- 91
2020-01-10 22:00:00 -3.2 2 Norte 9 Nordeste 0 -- -- 87
2020-01-10 21:00:00 -1.6 7 Nordeste 13 Nordeste 0 -- -- 82
2020-01-10 20:00:00 -0.5 6 Nordeste 17 Norte 0 -- -- 79
2020-01-10 19:00:00 -0.8 5 Norte 19 Norte 0 -- -- 78
2020-01-10 18:00:00 1.4 5 Norte 14 Nordeste 0 -- -- 69
2020-01-10 17:00:00 6.1 5 Nordeste 18 Este 0 -- -- 50
2020-01-10 16:00:00 6.2 8 Este 23 Nordeste 0 -- -- 53
2020-01-10 15:00:00 5.7 10 Nordeste 36 Norte 0 -- -- 52
2020-01-10 14:00:00 5.5 12 Nordeste 28 Norte 0 -- -- 56
2020-01-10 13:00:00 5.3 10 Norte 25 Norte 0 -- -- 61
2020-01-10 12:00:00 3.2 10 Norte 18 Norte 0 -- -- 71
2020-01-10 11:00:00 0.9 8 Nordeste 33 Norte 0 -- -- 79
2020-01-10 10:00:00 -0.2 26 Norte 35 Norte 0 -- -- 86
2020-01-10 09:00:00 -0.8 23 Norte 33 Norte 0 -- -- 86
2020-01-10 08:00:00 -1.8 12 Norte 22 Norte 0 -- -- 87
2020-01-10 07:00:00 -0.9 3 Norte 14 Norte 0 -- -- 81
2020-01-10 06:00:00 -0.4 2 Nordeste 20 Norte 0 -- -- 82
2020-01-10 05:00:00 0.6 9 Nordeste 16 Norte 0 -- -- 83
2020-01-10 04:00:00 0.4 10 Nordeste 17 Nordeste 0 -- -- 81
2020-01-10 03:00:00 1.7 10 Nordeste 23 Norte 0 -- -- 78
2020-01-10 02:00:00 2.5 13 Norte 22 Norte 0 -- -- 79
2020-01-10 01:00:00 3.7 6 Nordeste 19 Nordeste 0 -- -- 77
2020-01-10 00:00:00 4.4 8 Norte 21 Norte 0 -- -- 76
2020-01-09 23:00:00 5.1 4 Este 22 Nordeste 0 -- -- 77
2020-01-09 22:00:00 5.7 3 Oeste 13 Sudeste 0 -- -- 78
2020-01-09 21:00:00 7.7 3 Norte 16 Norte 0 -- -- 72
2020-01-09 20:00:00 7.8 5 Nordeste 33 Norte 0 -- -- 66
2020-01-09 19:00:00 8 8 Norte 22 Norte 0 -- -- 70
2020-01-09 18:00:00 8.4 3 Sudeste 10 Nordeste 0 -- -- 70
2020-01-09 17:00:00 13.9 4 Noroeste 18 Noroeste 0 -- -- 53
2020-01-09 16:00:00 13.9 9 Noroeste 20 Oeste 0 -- -- 52
2020-01-09 15:00:00 13.4 3 Norte 21 Norte 0 -- -- 52
2020-01-09 14:00:00 12.6 6 Oeste 24 Noroeste 0 -- -- 49
2020-01-09 13:00:00 12.3 9 Noroeste 21 Norte 0 -- -- 41
2020-01-09 12:00:00 9.8 6 Sudoeste 14 Sur 0 -- -- 45
2020-01-09 11:00:00 4.7 0 Calma 7 Sur 0 -- -- 75
2020-01-09 10:00:00 -2.8 0 Calma 10 Sudoeste 0 -- -- 96
2020-01-09 09:00:00 -3.8 2 Sudeste 6 Sudoeste 0 -- -- 95
2020-01-09 08:00:00 -4.3 0 Calma 3 Sudoeste 0 -- -- 96
2020-01-09 07:00:00 -4.1 2 Sur 5 Sudoeste 0 -- -- 99
2020-01-09 06:00:00 -4.2 0 Calma 3 Sur 0 -- -- 96
2020-01-09 05:00:00 -4 0 Calma 3 Sur 0 -- -- 95
2020-01-09 04:00:00 -3.9 0 Calma 2 Sur 0 -- -- 94
2020-01-09 03:00:00 -3.9 0 Calma 2 Sudoeste 0 -- -- 92
2020-01-09 02:00:00 -3.4 0 Calma 2 Sur 0 -- -- 93
2020-01-09 01:00:00 -2.9 0 Calma 3 Sur 0 -- -- 86
2020-01-09 00:00:00 -2.6 0 Calma 2 Sur 0 -- -- 85
2020-01-08 23:00:00 -2.1 0 Calma 4 Sudoeste 0 -- -- 85
2020-01-08 22:00:00 -0.9 0 Calma 3 Sudoeste 0 -- -- 81
2020-01-08 21:00:00 -0.1 0 Calma 5 Sur 0 -- -- 80
2020-01-08 20:00:00 1.7 0 Calma 4 Sur 0 -- -- 76
2020-01-08 19:00:00 4 3 Sur 7 Sur 0 -- -- 68
2020-01-08 18:00:00 6.5 3 Sur 17 Sur 0 -- -- 63
2020-01-08 17:00:00 12.4 10 Sudoeste 18 Sudoeste 0 -- -- 45
2020-01-08 16:00:00 15.1 10 Sudoeste 17 Sudoeste 0 -- -- 36
2020-01-08 15:00:00 16.8 3 Norte 8 Norte 0 -- -- 21
2020-01-08 14:00:00 15.6 2 Norte 9 Norte 0 -- -- 18
2020-01-08 13:00:00 12.6 3 Norte 5 Norte 0 -- -- 25
2020-01-08 12:00:00 8 0 Calma 2 Sudoeste 0 -- -- 38
2020-01-08 11:00:00 2.6 0 Calma 3 Sur 0 -- -- 50
2020-01-08 10:00:00 -2.4 0 Calma 2 Sudoeste 0 -- -- 73
2020-01-08 09:00:00 -4.6 0 Calma 2 Sur 0 -- -- 72
2020-01-08 08:00:00 -4.3 0 Calma 2 Sudoeste 0 -- -- 71
2020-01-08 07:00:00 -5.1 0 Calma 3 Sur 0 -- -- 72
2020-01-08 06:00:00 -4.8 0 Calma 2 Sudoeste 0 -- -- 72
2020-01-08 05:00:00 -4.3 0 Calma 2 Sudoeste 0 -- -- 71
2020-01-08 04:00:00 -4.1 0 Calma 2 Sur 0 -- -- 70
2020-01-08 03:00:00 -3.7 0 Calma 3 Sur 0 -- -- 70
2020-01-08 02:00:00 -4.3 0 Calma 2 Sur 0 -- -- 73
2020-01-08 01:00:00 -4.1 0 Calma 3 Sudoeste 0 -- -- 73
2020-01-08 00:00:00 -4.1 2 Sur 3 Sur 0 -- -- 74
2020-01-07 23:00:00 -4.1 0 Calma 3 Sur 0 -- -- 74
2020-01-07 22:00:00 -3 0 Calma 2 Sudoeste 0 -- -- 71
2020-01-07 21:00:00 -1.6 0 Calma 2 Sur 0 -- -- 67
2020-01-07 20:00:00 0.7 0 Calma 6 Sudeste 0 -- -- 59
2020-01-07 19:00:00 3 4 Sudeste 6 Sudeste 0 -- -- 54
2020-01-07 18:00:00 5.6 4 Sur 7 Sur 0 -- -- 48
2020-01-07 17:00:00 14.5 0 Calma 8 Norte 0 -- -- 33
2020-01-07 16:00:00 17.4 5 Norte 15 Norte 0 -- -- 22
2020-01-07 15:00:00 16.5 8 Norte 13 Norte 0 -- -- 19
2020-01-07 14:00:00 15.9 5 Norte 10 Norte 0 -- -- 22
2020-01-07 13:00:00 15.4 2 Este 9 Nordeste 0 -- -- 23
2020-01-07 12:00:00 8.4 0 Calma 3 Sudoeste 0 -- -- 48
2020-01-07 11:00:00 3.8 0 Calma 2 Sudoeste 0 -- -- 56
2020-01-07 10:00:00 -5 0 Calma 3 Sur 0 -- -- 85
2020-01-07 09:00:00 -6.4 0 Calma 3 Sur 0 -- -- 91
2020-01-07 08:00:00 -6.1 0 Calma 3 Sur 0 -- -- 87
2020-01-07 07:00:00 -5.5 0 Calma 2 Sur 0 -- -- 84
2020-01-07 06:00:00 -5.4 0 Calma 7 Sudoeste 0 -- -- 86
2020-01-07 05:00:00 -5.8 3 Sur 5 Sur 0 -- -- 88
2020-01-07 04:00:00 -5.4 0 Calma 2 Sur 0 -- -- 88
2020-01-07 03:00:00 -5.1 0 Calma 3 Sudoeste 0 -- -- 89
2020-01-07 02:00:00 -4.2 0 Calma 3 Sur 0 -- -- 83
2020-01-07 01:00:00 -4.2 0 Calma 4 Sur 0 -- -- 85
2020-01-07 00:00:00 -4.1 0 Calma 3 Sudoeste 0 -- -- 84
2020-01-06 23:00:00 -3.4 2 Sur 3 Sur 0 -- -- 83
2020-01-06 22:00:00 -3 2 Sudoeste 4 Sudoeste 0 -- -- 80
2020-01-06 21:00:00 -2.1 0 Calma 4 Sur 0 -- -- 75
2020-01-06 20:00:00 -1.1 0 Calma 5 Sur 0 -- -- 70
2020-01-06 19:00:00 0.4 2 Sudeste 6 Sur 0 -- -- 69
2020-01-06 18:00:00 3.3 4 Sur 11 Sudoeste 0 -- -- 65
2020-01-06 17:00:00 10.6 3 Sudoeste 14 Sudoeste 0 -- -- 50
2020-01-06 16:00:00 12.4 10 Sudoeste 20 Sudoeste 0 -- -- 48
2020-01-06 15:00:00 13.3 8 Sudoeste 16 Sudoeste 0 -- -- 37
2020-01-06 14:00:00 13.5 5 Sudoeste 12 Sudoeste 0 -- -- 28
2020-01-06 13:00:00 12.2 2 Sudoeste 6 Sur 0 -- -- 28
2020-01-06 12:00:00 7.5 3 Sur 5 Sur 0 -- -- 44
2020-01-06 11:00:00 3.4 0 Calma 3 Sur 0 -- -- 56
2020-01-06 10:00:00 -5.3 0 Calma 2 Sudoeste 0 -- -- 89